sensor_id;sensor_type;location;lat;lon;timestamp;temperature;humidity
17687;DHT22;8962;52.538;13.266;2022-07-23T00:01:20;18.30;99.90
17687;DHT22;8962;52.538;13.266;2022-07-23T00:03:48;18.30;99.90
17687;DHT22;8962;52.538;13.266;2022-07-23T00:06:15;18.30;99.90
17687;DHT22;8962;52.538;13.266;2022-07-23T00:08:42;18.20;99.90
17687;DHT22;8962;52.538;13.266;2022-07-23T00:11:11;18.20;99.90
17687;DHT22;8962;52.538;13.266;2022-07-23T00:13:38;18.20;99.90
17687;DHT22;8962;52.538;13.266;2022-07-23T00:16:06;18.20;99.90
17687;DHT22;8962;52.538;13.266;2022-07-23T00:18:33;18.30;99.90
17687;DHT22;8962;52.538;13.266;2022-07-23T00:21:00;18.30;99.90
17687;DHT22;8962;52.538;13.266;2022-07-23T00:23:27;18.30;99.90
17687;DHT22;8962;52.538;13.266;2022-07-23T00:25:56;18.30;99.90
17687;DHT22;8962;52.538;13.266;2022-07-23T00:28:25;18.20;99.90
17687;DHT22;8962;52.538;13.266;2022-07-23T00:30:52;18.20;99.90
17687;DHT22;8962;52.538;13.266;2022-07-23T00:33:20;18.20;99.90
17687;DHT22;8962;52.538;13.266;2022-07-23T00:35:47;18.20;99.90
17687;DHT22;8962;52.538;13.266;2022-07-23T00:38:14;18.20;99.90
17687;DHT22;8962;52.538;13.266;2022-07-23T00:40:41;18.10;99.90
17687;DHT22;8962;52.538;13.266;2022-07-23T00:43:08;18.00;99.90
17687;DHT22;8962;52.538;13.266;2022-07-23T00:45:37;18.00;99.90
17687;DHT22;8962;52.538;13.266;2022-07-23T00:48:06;18.00;99.90
17687;DHT22;8962;52.538;13.266;2022-07-23T00:50:34;17.90;99.90
17687;DHT22;8962;52.538;13.266;2022-07-23T00:53:01;17.80;99.90
17687;DHT22;8962;52.538;13.266;2022-07-23T00:55:28;17.80;99.90
17687;DHT22;8962;52.538;13.266;2022-07-23T00:57:56;17.70;99.90
17687;DHT22;8962;52.538;13.266;2022-07-23T01:00:24;17.70;99.90
17687;DHT22;8962;52.538;13.266;2022-07-23T01:02:53;17.60;99.90
17687;DHT22;8962;52.538;13.266;2022-07-23T01:05:20;17.60;99.90
17687;DHT22;8962;52.538;13.266;2022-07-23T01:07:49;17.50;99.90
17687;DHT22;8962;52.538;13.266;2022-07-23T01:10:16;17.50;99.90
17687;DHT22;8962;52.538;13.266;2022-07-23T01:12:58;17.40;99.90
17687;DHT22;8962;52.538;13.266;2022-07-23T01:15:26;17.30;99.90
17687;DHT22;8962;52.538;13.266;2022-07-23T01:17:55;17.30;99.90
17687;DHT22;8962;52.538;13.266;2022-07-23T01:20:22;17.30;99.90
17687;DHT22;8962;52.538;13.266;2022-07-23T01:22:52;17.20;99.90
17687;DHT22;8962;52.538;13.266;2022-07-23T01:25:20;17.20;99.90
17687;DHT22;8962;52.538;13.266;2022-07-23T01:27:54;17.20;99.90
17687;DHT22;8962;52.538;13.266;2022-07-23T01:30:22;17.10;99.90
17687;DHT22;8962;52.538;13.266;2022-07-23T01:32:49;17.10;99.90
17687;DHT22;8962;52.538;13.266;2022-07-23T01:35:16;17.10;99.90
17687;DHT22;8962;52.538;13.266;2022-07-23T01:37:44;17.10;99.90
17687;DHT22;8962;52.538;13.266;2022-07-23T01:40:13;17.10;99.90
17687;DHT22;8962;52.538;13.266;2022-07-23T01:42:40;17.40;99.90
17687;DHT22;8962;52.538;13.266;2022-07-23T01:45:09;17.00;99.90
17687;DHT22;8962;52.538;13.266;2022-07-23T01:47:39;17.00;99.90
17687;DHT22;8962;52.538;13.266;2022-07-23T01:50:07;16.90;99.90
17687;DHT22;8962;52.538;13.266;2022-07-23T01:52:42;17.00;99.90
17687;DHT22;8962;52.538;13.266;2022-07-23T01:55:09;17.10;99.90
17687;DHT22;8962;52.538;13.266;2022-07-23T01:57:41;17.10;99.90
17687;DHT22;8962;52.538;13.266;2022-07-23T02:00:11;17.10;99.90
17687;DHT22;8962;52.538;13.266;2022-07-23T02:02:38;17.10;99.90
17687;DHT22;8962;52.538;13.266;2022-07-23T02:05:06;17.10;99.90
17687;DHT22;8962;52.538;13.266;2022-07-23T02:07:34;17.20;99.90
17687;DHT22;8962;52.538;13.266;2022-07-23T02:10:01;17.10;99.90
17687;DHT22;8962;52.538;13.266;2022-07-23T02:12:28;17.20;99.90
17687;DHT22;8962;52.538;13.266;2022-07-23T02:14:56;17.10;99.90
17687;DHT22;8962;52.538;13.266;2022-07-23T02:17:24;17.00;99.90
17687;DHT22;8962;52.538;13.266;2022-07-23T02:19:51;17.00;99.90
17687;DHT22;8962;52.538;13.266;2022-07-23T02:22:18;17.00;99.90
17687;DHT22;8962;52.538;13.266;2022-07-23T02:24:48;17.00;99.90
17687;DHT22;8962;52.538;13.266;2022-07-23T02:27:15;17.00;99.90
17687;DHT22;8962;52.538;13.266;2022-07-23T02:29:43;16.90;99.90
17687;DHT22;8962;52.538;13.266;2022-07-23T02:32:11;17.00;99.90
17687;DHT22;8962;52.538;13.266;2022-07-23T02:34:39;16.90;99.90
17687;DHT22;8962;52.538;13.266;2022-07-23T02:37:06;16.90;99.90
17687;DHT22;8962;52.538;13.266;2022-07-23T02:39:35;16.80;99.90
17687;DHT22;8962;52.538;13.266;2022-07-23T02:42:02;16.70;99.90
17687;DHT22;8962;52.538;13.266;2022-07-23T02:44:31;16.80;99.90
17687;DHT22;8962;52.538;13.266;2022-07-23T02:46:59;16.70;99.90
17687;DHT22;8962;52.538;13.266;2022-07-23T02:49:27;16.60;99.90
17687;DHT22;8962;52.538;13.266;2022-07-23T02:51:59;16.70;99.90
17687;DHT22;8962;52.538;13.266;2022-07-23T02:54:27;16.60;99.90
17687;DHT22;8962;52.538;13.266;2022-07-23T02:56:53;16.60;99.90
17687;DHT22;8962;52.538;13.266;2022-07-23T02:59:20;16.60;99.90
17687;DHT22;8962;52.538;13.266;2022-07-23T03:01:48;16.50;99.90
17687;DHT22;8962;52.538;13.266;2022-07-23T03:04:14;16.60;99.90
17687;DHT22;8962;52.538;13.266;2022-07-23T03:06:44;16.60;99.90
17687;DHT22;8962;52.538;13.266;2022-07-23T03:09:11;16.60;99.90
17687;DHT22;8962;52.538;13.266;2022-07-23T03:11:39;16.50;99.90
17687;DHT22;8962;52.538;13.266;2022-07-23T03:14:06;16.50;99.90
17687;DHT22;8962;52.538;13.266;2022-07-23T03:16:35;16.40;99.90
17687;DHT22;8962;52.538;13.266;2022-07-23T03:19:02;16.50;99.90
17687;DHT22;8962;52.538;13.266;2022-07-23T03:21:29;16.50;99.90
17687;DHT22;8962;52.538;13.266;2022-07-23T03:23:57;16.40;99.90
17687;DHT22;8962;52.538;13.266;2022-07-23T03:26:24;16.50;99.90
17687;DHT22;8962;52.538;13.266;2022-07-23T03:28:52;16.50;99.90
17687;DHT22;8962;52.538;13.266;2022-07-23T03:31:19;16.50;99.90
17687;DHT22;8962;52.538;13.266;2022-07-23T03:33:46;16.50;99.90
17687;DHT22;8962;52.538;13.266;2022-07-23T03:36:13;16.40;99.90
17687;DHT22;8962;52.538;13.266;2022-07-23T03:38:42;16.50;99.90
17687;DHT22;8962;52.538;13.266;2022-07-23T03:41:11;16.60;99.90
17687;DHT22;8962;52.538;13.266;2022-07-23T03:43:38;16.70;99.90
17687;DHT22;8962;52.538;13.266;2022-07-23T03:46:05;16.80;99.90
17687;DHT22;8962;52.538;13.266;2022-07-23T03:48:32;16.70;99.90
17687;DHT22;8962;52.538;13.266;2022-07-23T03:50:59;16.70;99.90
17687;DHT22;8962;52.538;13.266;2022-07-23T03:53:26;16.80;99.90
17687;DHT22;8962;52.538;13.266;2022-07-23T03:55:53;16.80;99.90
17687;DHT22;8962;52.538;13.266;2022-07-23T03:58:22;16.80;99.90
17687;DHT22;8962;52.538;13.266;2022-07-23T04:00:49;16.80;99.90
17687;DHT22;8962;52.538;13.266;2022-07-23T04:03:16;16.90;99.90
17687;DHT22;8962;52.538;13.266;2022-07-23T04:05:43;16.90;99.90
17687;DHT22;8962;52.538;13.266;2022-07-23T04:08:13;16.90;99.90
17687;DHT22;8962;52.538;13.266;2022-07-23T04:10:44;16.80;99.90
17687;DHT22;8962;52.538;13.266;2022-07-23T04:13:12;16.80;99.90
17687;DHT22;8962;52.538;13.266;2022-07-23T04:15:40;16.70;99.90
17687;DHT22;8962;52.538;13.266;2022-07-23T04:18:07;16.70;99.90
17687;DHT22;8962;52.538;13.266;2022-07-23T04:20:44;16.50;99.90
17687;DHT22;8962;52.538;13.266;2022-07-23T04:23:11;16.60;99.90
17687;DHT22;8962;52.538;13.266;2022-07-23T04:25:39;16.60;99.90
17687;DHT22;8962;52.538;13.266;2022-07-23T04:28:07;16.40;99.90
17687;DHT22;8962;52.538;13.266;2022-07-23T04:30:34;16.70;99.90
17687;DHT22;8962;52.538;13.266;2022-07-23T04:33:03;16.40;99.90
17687;DHT22;8962;52.538;13.266;2022-07-23T04:35:32;16.10;99.90
17687;DHT22;8962;52.538;13.266;2022-07-23T04:38:09;16.10;99.90
17687;DHT22;8962;52.538;13.266;2022-07-23T04:40:36;16.10;99.90
17687;DHT22;8962;52.538;13.266;2022-07-23T04:43:03;16.10;99.90
17687;DHT22;8962;52.538;13.266;2022-07-23T04:45:34;16.10;99.90
17687;DHT22;8962;52.538;13.266;2022-07-23T04:48:04;16.10;99.90
17687;DHT22;8962;52.538;13.266;2022-07-23T04:50:31;16.10;99.90
17687;DHT22;8962;52.538;13.266;2022-07-23T04:52:58;16.00;99.90
17687;DHT22;8962;52.538;13.266;2022-07-23T04:55:26;16.00;99.90
17687;DHT22;8962;52.538;13.266;2022-07-23T04:57:53;16.10;99.90
17687;DHT22;8962;52.538;13.266;2022-07-23T05:00:20;16.00;99.90
17687;DHT22;8962;52.538;13.266;2022-07-23T05:02:47;16.00;99.90
17687;DHT22;8962;52.538;13.266;2022-07-23T05:05:16;16.00;99.90
17687;DHT22;8962;52.538;13.266;2022-07-23T05:07:44;16.00;99.90
17687;DHT22;8962;52.538;13.266;2022-07-23T05:10:11;16.10;99.90
17687;DHT22;8962;52.538;13.266;2022-07-23T05:12:38;16.10;99.90
17687;DHT22;8962;52.538;13.266;2022-07-23T05:15:06;16.10;99.90
17687;DHT22;8962;52.538;13.266;2022-07-23T05:17:33;16.10;99.90
17687;DHT22;8962;52.538;13.266;2022-07-23T05:20:03;16.20;99.90
17687;DHT22;8962;52.538;13.266;2022-07-23T05:22:32;16.10;99.90
17687;DHT22;8962;52.538;13.266;2022-07-23T05:24:59;16.10;99.90
17687;DHT22;8962;52.538;13.266;2022-07-23T05:27:26;16.20;99.90
17687;DHT22;8962;52.538;13.266;2022-07-23T05:29:54;16.10;99.90
17687;DHT22;8962;52.538;13.266;2022-07-23T05:32:21;16.10;99.90
17687;DHT22;8962;52.538;13.266;2022-07-23T05:34:57;16.10;99.90
17687;DHT22;8962;52.538;13.266;2022-07-23T05:37:24;16.00;99.90
17687;DHT22;8962;52.538;13.266;2022-07-23T05:39:53;16.00;99.90
17687;DHT22;8962;52.538;13.266;2022-07-23T05:42:20;16.10;99.90
17687;DHT22;8962;52.538;13.266;2022-07-23T05:44:48;16.10;99.90
17687;DHT22;8962;52.538;13.266;2022-07-23T05:47:15;16.30;99.90
17687;DHT22;8962;52.538;13.266;2022-07-23T05:49:42;16.30;99.90
17687;DHT22;8962;52.538;13.266;2022-07-23T05:52:24;16.40;99.90
17687;DHT22;8962;52.538;13.266;2022-07-23T05:55:18;16.50;99.90
17687;DHT22;8962;52.538;13.266;2022-07-23T05:57:46;16.40;99.90
17687;DHT22;8962;52.538;13.266;2022-07-23T06:00:13;16.40;99.90
17687;DHT22;8962;52.538;13.266;2022-07-23T06:02:42;16.30;99.90
17687;DHT22;8962;52.538;13.266;2022-07-23T06:05:11;16.40;99.90
17687;DHT22;8962;52.538;13.266;2022-07-23T06:07:39;16.30;99.90
17687;DHT22;8962;52.538;13.266;2022-07-23T06:10:07;16.30;99.90
17687;DHT22;8962;52.538;13.266;2022-07-23T06:12:36;16.40;99.90
17687;DHT22;8962;52.538;13.266;2022-07-23T06:15:05;16.30;99.90
17687;DHT22;8962;52.538;13.266;2022-07-23T06:17:33;16.40;99.90
17687;DHT22;8962;52.538;13.266;2022-07-23T06:20:02;16.30;99.90
17687;DHT22;8962;52.538;13.266;2022-07-23T06:22:29;16.30;99.90
17687;DHT22;8962;52.538;13.266;2022-07-23T06:24:57;16.30;99.90
17687;DHT22;8962;52.538;13.266;2022-07-23T06:27:23;16.40;99.90
17687;DHT22;8962;52.538;13.266;2022-07-23T06:29:53;16.40;99.90
17687;DHT22;8962;52.538;13.266;2022-07-23T06:32:20;16.40;99.90
17687;DHT22;8962;52.538;13.266;2022-07-23T06:34:47;16.30;99.90
17687;DHT22;8962;52.538;13.266;2022-07-23T06:37:14;16.30;99.90
17687;DHT22;8962;52.538;13.266;2022-07-23T06:39:41;16.50;99.90
17687;DHT22;8962;52.538;13.266;2022-07-23T06:42:09;16.80;99.90
17687;DHT22;8962;52.538;13.266;2022-07-23T06:44:43;16.90;99.90
17687;DHT22;8962;52.538;13.266;2022-07-23T06:47:12;16.90;99.90
17687;DHT22;8962;52.538;13.266;2022-07-23T06:49:40;17.00;99.90
17687;DHT22;8962;52.538;13.266;2022-07-23T06:52:07;17.00;99.90
17687;DHT22;8962;52.538;13.266;2022-07-23T06:54:34;17.00;99.90
17687;DHT22;8962;52.538;13.266;2022-07-23T06:57:02;17.10;99.90
17687;DHT22;8962;52.538;13.266;2022-07-23T06:59:29;17.10;99.90
17687;DHT22;8962;52.538;13.266;2022-07-23T07:01:56;17.30;99.90
17687;DHT22;8962;52.538;13.266;2022-07-23T07:04:27;17.30;99.90
17687;DHT22;8962;52.538;13.266;2022-07-23T07:06:55;17.20;99.90
17687;DHT22;8962;52.538;13.266;2022-07-23T07:09:21;17.40;99.90
17687;DHT22;8962;52.538;13.266;2022-07-23T07:11:48;17.40;99.90
17687;DHT22;8962;52.538;13.266;2022-07-23T07:14:15;17.40;99.90
17687;DHT22;8962;52.538;13.266;2022-07-23T07:16:42;17.20;99.90
17687;DHT22;8962;52.538;13.266;2022-07-23T07:19:09;17.40;99.90
17687;DHT22;8962;52.538;13.266;2022-07-23T07:21:37;17.60;99.90
17687;DHT22;8962;52.538;13.266;2022-07-23T07:24:05;17.70;99.90
17687;DHT22;8962;52.538;13.266;2022-07-23T07:26:33;17.80;99.90
17687;DHT22;8962;52.538;13.266;2022-07-23T07:29:00;17.80;99.90
17687;DHT22;8962;52.538;13.266;2022-07-23T07:31:27;17.90;99.90
17687;DHT22;8962;52.538;13.266;2022-07-23T07:33:54;18.00;99.90
17687;DHT22;8962;52.538;13.266;2022-07-23T07:36:22;18.00;99.90
17687;DHT22;8962;52.538;13.266;2022-07-23T07:38:50;18.20;99.90
17687;DHT22;8962;52.538;13.266;2022-07-23T07:41:17;18.20;99.90
17687;DHT22;8962;52.538;13.266;2022-07-23T07:43:48;18.30;99.90
17687;DHT22;8962;52.538;13.266;2022-07-23T07:46:15;18.20;99.90
17687;DHT22;8962;52.538;13.266;2022-07-23T07:48:43;17.70;99.90
17687;DHT22;8962;52.538;13.266;2022-07-23T07:51:10;17.90;99.90
17687;DHT22;8962;52.538;13.266;2022-07-23T07:53:37;17.70;99.90
17687;DHT22;8962;52.538;13.266;2022-07-23T07:56:06;17.70;99.90
17687;DHT22;8962;52.538;13.266;2022-07-23T07:58:33;17.90;99.90
17687;DHT22;8962;52.538;13.266;2022-07-23T08:01:00;17.90;99.90
17687;DHT22;8962;52.538;13.266;2022-07-23T08:03:28;18.00;99.90
17687;DHT22;8962;52.538;13.266;2022-07-23T08:05:55;18.10;99.90
17687;DHT22;8962;52.538;13.266;2022-07-23T08:08:22;18.40;99.90
17687;DHT22;8962;52.538;13.266;2022-07-23T08:10:50;18.40;99.90
17687;DHT22;8962;52.538;13.266;2022-07-23T08:13:18;18.20;99.90
17687;DHT22;8962;52.538;13.266;2022-07-23T08:15:45;18.50;99.90
17687;DHT22;8962;52.538;13.266;2022-07-23T08:18:12;18.90;99.90
17687;DHT22;8962;52.538;13.266;2022-07-23T08:20:39;19.20;99.90
17687;DHT22;8962;52.538;13.266;2022-07-23T08:23:07;19.00;99.90
17687;DHT22;8962;52.538;13.266;2022-07-23T08:25:37;19.20;99.90
17687;DHT22;8962;52.538;13.266;2022-07-23T08:28:05;19.10;99.90
17687;DHT22;8962;52.538;13.266;2022-07-23T08:30:35;19.60;99.90
17687;DHT22;8962;52.538;13.266;2022-07-23T08:33:04;20.00;99.90
17687;DHT22;8962;52.538;13.266;2022-07-23T08:35:34;19.40;99.90
17687;DHT22;8962;52.538;13.266;2022-07-23T08:38:05;19.10;99.90
17687;DHT22;8962;52.538;13.266;2022-07-23T08:40:34;19.40;99.90
17687;DHT22;8962;52.538;13.266;2022-07-23T08:43:05;19.70;99.90
17687;DHT22;8962;52.538;13.266;2022-07-23T08:45:38;20.10;99.90
17687;DHT22;8962;52.538;13.266;2022-07-23T08:48:07;20.60;99.90
17687;DHT22;8962;52.538;13.266;2022-07-23T08:50:35;20.00;99.90
17687;DHT22;8962;52.538;13.266;2022-07-23T08:53:05;20.30;99.90
17687;DHT22;8962;52.538;13.266;2022-07-23T08:55:33;20.40;99.90
17687;DHT22;8962;52.538;13.266;2022-07-23T08:58:00;20.90;99.90
17687;DHT22;8962;52.538;13.266;2022-07-23T09:00:27;21.20;99.90
17687;DHT22;8962;52.538;13.266;2022-07-23T09:02:56;21.40;99.90
17687;DHT22;8962;52.538;13.266;2022-07-23T09:05:23;21.20;99.90
17687;DHT22;8962;52.538;13.266;2022-07-23T09:08:08;21.10;99.90
17687;DHT22;8962;52.538;13.266;2022-07-23T09:10:47;21.20;99.90
17687;DHT22;8962;52.538;13.266;2022-07-23T09:13:32;20.80;99.90
17687;DHT22;8962;52.538;13.266;2022-07-23T09:16:02;21.20;99.90
17687;DHT22;8962;52.538;13.266;2022-07-23T09:18:34;21.50;99.90
17687;DHT22;8962;52.538;13.266;2022-07-23T09:21:09;21.50;99.90
17687;DHT22;8962;52.538;13.266;2022-07-23T09:23:41;21.90;99.90
17687;DHT22;8962;52.538;13.266;2022-07-23T09:29:12;21.80;99.90
17687;DHT22;8962;52.538;13.266;2022-07-23T09:31:45;22.00;99.90
17687;DHT22;8962;52.538;13.266;2022-07-23T09:34:17;21.90;99.90
17687;DHT22;8962;52.538;13.266;2022-07-23T09:36:44;21.90;99.90
17687;DHT22;8962;52.538;13.266;2022-07-23T09:39:12;21.60;99.90
17687;DHT22;8962;52.538;13.266;2022-07-23T09:41:42;21.90;99.90
17687;DHT22;8962;52.538;13.266;2022-07-23T09:44:14;21.90;99.90
17687;DHT22;8962;52.538;13.266;2022-07-23T09:46:43;22.00;99.90
17687;DHT22;8962;52.538;13.266;2022-07-23T09:49:14;22.00;99.90
17687;DHT22;8962;52.538;13.266;2022-07-23T09:51:51;22.00;99.90
17687;DHT22;8962;52.538;13.266;2022-07-23T09:54:27;22.50;99.90
17687;DHT22;8962;52.538;13.266;2022-07-23T09:56:56;22.50;99.90
17687;DHT22;8962;52.538;13.266;2022-07-23T09:59:26;22.70;99.90
17687;DHT22;8962;52.538;13.266;2022-07-23T10:01:55;22.90;99.90
17687;DHT22;8962;52.538;13.266;2022-07-23T10:04:28;22.80;99.90
17687;DHT22;8962;52.538;13.266;2022-07-23T10:07:11;22.20;99.90
17687;DHT22;8962;52.538;13.266;2022-07-23T10:10:10;22.20;99.90
17687;DHT22;8962;52.538;13.266;2022-07-23T10:12:53;22.60;99.90
17687;DHT22;8962;52.538;13.266;2022-07-23T10:15:40;22.80;99.90
17687;DHT22;8962;52.538;13.266;2022-07-23T10:18:09;22.70;99.90
17687;DHT22;8962;52.538;13.266;2022-07-23T10:20:38;22.50;99.90
17687;DHT22;8962;52.538;13.266;2022-07-23T10:23:20;22.70;99.90
17687;DHT22;8962;52.538;13.266;2022-07-23T10:25:55;22.90;99.90
17687;DHT22;8962;52.538;13.266;2022-07-23T10:28:46;23.30;99.90
17687;DHT22;8962;52.538;13.266;2022-07-23T10:31:26;23.70;99.90
17687;DHT22;8962;52.538;13.266;2022-07-23T10:34:10;23.70;99.90
17687;DHT22;8962;52.538;13.266;2022-07-23T10:36:44;23.50;99.90
17687;DHT22;8962;52.538;13.266;2022-07-23T10:39:17;23.30;99.90
17687;DHT22;8962;52.538;13.266;2022-07-23T10:41:45;23.10;99.90
17687;DHT22;8962;52.538;13.266;2022-07-23T10:44:14;23.10;99.90
17687;DHT22;8962;52.538;13.266;2022-07-23T10:47:03;23.10;99.90
17687;DHT22;8962;52.538;13.266;2022-07-23T10:49:53;23.30;99.90
17687;DHT22;8962;52.538;13.266;2022-07-23T10:52:23;22.90;99.90
17687;DHT22;8962;52.538;13.266;2022-07-23T10:54:53;22.90;99.90
17687;DHT22;8962;52.538;13.266;2022-07-23T10:57:24;23.10;99.90
17687;DHT22;8962;52.538;13.266;2022-07-23T11:00:20;23.20;99.90
17687;DHT22;8962;52.538;13.266;2022-07-23T11:02:51;23.00;99.90
17687;DHT22;8962;52.538;13.266;2022-07-23T11:05:19;23.40;99.90
17687;DHT22;8962;52.538;13.266;2022-07-23T11:08:13;23.60;99.90
17687;DHT22;8962;52.538;13.266;2022-07-23T11:10:47;23.90;99.90
17687;DHT22;8962;52.538;13.266;2022-07-23T11:13:37;23.90;99.90
17687;DHT22;8962;52.538;13.266;2022-07-23T11:16:15;23.90;99.90
17687;DHT22;8962;52.538;13.266;2022-07-23T11:21:46;24.50;99.90
17687;DHT22;8962;52.538;13.266;2022-07-23T11:24:19;24.40;99.90
17687;DHT22;8962;52.538;13.266;2022-07-23T11:26:59;24.50;99.90
17687;DHT22;8962;52.538;13.266;2022-07-23T11:29:46;24.40;99.90
17687;DHT22;8962;52.538;13.266;2022-07-23T11:32:39;24.50;99.90
17687;DHT22;8962;52.538;13.266;2022-07-23T11:35:25;24.90;99.90
17687;DHT22;8962;52.538;13.266;2022-07-23T11:37:54;24.80;99.90
17687;DHT22;8962;52.538;13.266;2022-07-23T11:40:30;24.80;99.90
17687;DHT22;8962;52.538;13.266;2022-07-23T11:42:59;24.80;99.90
17687;DHT22;8962;52.538;13.266;2022-07-23T11:45:30;24.80;99.90
17687;DHT22;8962;52.538;13.266;2022-07-23T11:47:57;24.60;99.90
17687;DHT22;8962;52.538;13.266;2022-07-23T11:50:25;25.20;99.90
17687;DHT22;8962;52.538;13.266;2022-07-23T11:52:52;25.50;99.90
17687;DHT22;8962;52.538;13.266;2022-07-23T11:55:19;25.90;99.90
17687;DHT22;8962;52.538;13.266;2022-07-23T11:57:52;25.80;99.90
17687;DHT22;8962;52.538;13.266;2022-07-23T12:00:21;25.60;99.90
17687;DHT22;8962;52.538;13.266;2022-07-23T12:02:50;25.50;99.90
17687;DHT22;8962;52.538;13.266;2022-07-23T12:05:19;25.40;99.90
17687;DHT22;8962;52.538;13.266;2022-07-23T12:07:47;25.00;99.90
17687;DHT22;8962;52.538;13.266;2022-07-23T12:10:18;25.70;99.90
17687;DHT22;8962;52.538;13.266;2022-07-23T12:12:51;27.30;99.90
17687;DHT22;8962;52.538;13.266;2022-07-23T12:15:21;27.70;99.90
17687;DHT22;8962;52.538;13.266;2022-07-23T12:17:49;27.80;99.90
17687;DHT22;8962;52.538;13.266;2022-07-23T12:20:18;28.10;99.90
17687;DHT22;8962;52.538;13.266;2022-07-23T12:22:47;27.80;99.90
17687;DHT22;8962;52.538;13.266;2022-07-23T12:25:16;27.60;99.90
17687;DHT22;8962;52.538;13.266;2022-07-23T12:27:44;26.90;99.90
17687;DHT22;8962;52.538;13.266;2022-07-23T12:30:20;26.40;99.90
17687;DHT22;8962;52.538;13.266;2022-07-23T12:32:49;26.00;99.90
17687;DHT22;8962;52.538;13.266;2022-07-23T12:35:16;25.80;99.90
17687;DHT22;8962;52.538;13.266;2022-07-23T12:37:46;25.60;99.90
17687;DHT22;8962;52.538;13.266;2022-07-23T12:40:22;25.40;99.90
17687;DHT22;8962;52.538;13.266;2022-07-23T12:42:50;26.10;99.90
17687;DHT22;8962;52.538;13.266;2022-07-23T12:45:19;26.30;99.90
17687;DHT22;8962;52.538;13.266;2022-07-23T12:47:58;28.00;99.90
17687;DHT22;8962;52.538;13.266;2022-07-23T12:50:56;29.20;99.90
17687;DHT22;8962;52.538;13.266;2022-07-23T12:53:25;28.40;99.90
17687;DHT22;8962;52.538;13.266;2022-07-23T12:55:58;27.60;99.90
17687;DHT22;8962;52.538;13.266;2022-07-23T12:58:26;28.80;99.90
17687;DHT22;8962;52.538;13.266;2022-07-23T13:01:00;30.00;99.90
17687;DHT22;8962;52.538;13.266;2022-07-23T13:03:30;30.50;99.90
17687;DHT22;8962;52.538;13.266;2022-07-23T13:05:58;30.40;99.30
17687;DHT22;8962;52.538;13.266;2022-07-23T13:08:27;31.00;97.50
17687;DHT22;8962;52.538;13.266;2022-07-23T13:10:54;31.50;95.50
17687;DHT22;8962;52.538;13.266;2022-07-23T13:13:23;32.00;93.70
17687;DHT22;8962;52.538;13.266;2022-07-23T13:15:51;31.70;93.40
17687;DHT22;8962;52.538;13.266;2022-07-23T13:18:19;30.50;94.90
17687;DHT22;8962;52.538;13.266;2022-07-23T13:20:48;30.80;95.10
17687;DHT22;8962;52.538;13.266;2022-07-23T13:23:15;31.40;93.70
17687;DHT22;8962;52.538;13.266;2022-07-23T13:25:43;31.80;91.10
17687;DHT22;8962;52.538;13.266;2022-07-23T13:28:10;30.90;92.70
17687;DHT22;8962;52.538;13.266;2022-07-23T13:30:37;30.10;94.40
17687;DHT22;8962;52.538;13.266;2022-07-23T13:33:05;29.90;94.80
17687;DHT22;8962;52.538;13.266;2022-07-23T13:35:34;29.10;96.00
17687;DHT22;8962;52.538;13.266;2022-07-23T13:38:01;28.10;98.50
17687;DHT22;8962;52.538;13.266;2022-07-23T13:40:28;27.60;99.10
17687;DHT22;8962;52.538;13.266;2022-07-23T13:42:55;26.90;99.90
17687;DHT22;8962;52.538;13.266;2022-07-23T13:45:22;26.50;99.90
17687;DHT22;8962;52.538;13.266;2022-07-23T13:47:50;25.70;99.90
17687;DHT22;8962;52.538;13.266;2022-07-23T13:50:17;25.50;99.90
17687;DHT22;8962;52.538;13.266;2022-07-23T13:52:45;25.60;99.90
17687;DHT22;8962;52.538;13.266;2022-07-23T13:55:12;25.90;99.90
17687;DHT22;8962;52.538;13.266;2022-07-23T13:57:39;27.00;99.90
17687;DHT22;8962;52.538;13.266;2022-07-23T14:00:07;28.90;99.90
17687;DHT22;8962;52.538;13.266;2022-07-23T14:02:37;30.10;97.00
17687;DHT22;8962;52.538;13.266;2022-07-23T14:05:05;31.60;92.80
17687;DHT22;8962;52.538;13.266;2022-07-23T14:07:32;32.20;86.70
17687;DHT22;8962;52.538;13.266;2022-07-23T14:10:01;31.90;85.80
17687;DHT22;8962;52.538;13.266;2022-07-23T14:12:28;30.40;89.90
17687;DHT22;8962;52.538;13.266;2022-07-23T14:14:55;28.60;93.40
17687;DHT22;8962;52.538;13.266;2022-07-23T14:17:22;26.80;98.20
17687;DHT22;8962;52.538;13.266;2022-07-23T14:19:50;26.30;99.90
17687;DHT22;8962;52.538;13.266;2022-07-23T14:22:17;26.10;99.90
17687;DHT22;8962;52.538;13.266;2022-07-23T14:24:44;25.80;99.90
17687;DHT22;8962;52.538;13.266;2022-07-23T14:27:12;25.90;99.90
17687;DHT22;8962;52.538;13.266;2022-07-23T14:29:39;25.50;99.90
17687;DHT22;8962;52.538;13.266;2022-07-23T14:32:06;26.60;99.90
17687;DHT22;8962;52.538;13.266;2022-07-23T14:34:34;29.10;96.60
17687;DHT22;8962;52.538;13.266;2022-07-23T14:37:01;30.10;93.10
17687;DHT22;8962;52.538;13.266;2022-07-23T14:39:28;29.20;93.80
17687;DHT22;8962;52.538;13.266;2022-07-23T14:41:55;28.50;95.80
17687;DHT22;8962;52.538;13.266;2022-07-23T14:44:24;29.90;93.50
17687;DHT22;8962;52.538;13.266;2022-07-23T14:46:52;30.90;89.80
17687;DHT22;8962;52.538;13.266;2022-07-23T14:49:19;31.80;85.70
17687;DHT22;8962;52.538;13.266;2022-07-23T14:51:47;31.60;84.50
17687;DHT22;8962;52.538;13.266;2022-07-23T14:54:14;30.90;85.80
17687;DHT22;8962;52.538;13.266;2022-07-23T14:56:41;29.60;90.20
17687;DHT22;8962;52.538;13.266;2022-07-23T14:59:09;28.30;92.60
17687;DHT22;8962;52.538;13.266;2022-07-23T15:01:37;27.50;95.40
17687;DHT22;8962;52.538;13.266;2022-07-23T15:04:04;28.90;93.00
17687;DHT22;8962;52.538;13.266;2022-07-23T15:06:32;29.50;91.10
17687;DHT22;8962;52.538;13.266;2022-07-23T15:08:59;28.40;92.20
17687;DHT22;8962;52.538;13.266;2022-07-23T15:11:27;28.50;93.20
17687;DHT22;8962;52.538;13.266;2022-07-23T15:13:56;29.90;90.90
17687;DHT22;8962;52.538;13.266;2022-07-23T15:16:24;32.00;82.30
17687;DHT22;8962;52.538;13.266;2022-07-23T15:18:52;33.40;74.70
17687;DHT22;8962;52.538;13.266;2022-07-23T15:21:19;34.20;68.30
17687;DHT22;8962;52.538;13.266;2022-07-23T15:23:47;35.00;64.10
17687;DHT22;8962;52.538;13.266;2022-07-23T15:26:14;34.60;63.70
17687;DHT22;8962;52.538;13.266;2022-07-23T15:28:43;34.00;62.60
17687;DHT22;8962;52.538;13.266;2022-07-23T15:31:11;33.40;62.90
17687;DHT22;8962;52.538;13.266;2022-07-23T15:33:38;31.90;66.50
17687;DHT22;8962;52.538;13.266;2022-07-23T15:36:07;30.50;71.50
17687;DHT22;8962;52.538;13.266;2022-07-23T15:38:35;29.50;75.30
17687;DHT22;8962;52.538;13.266;2022-07-23T15:41:02;28.40;79.80
17687;DHT22;8962;52.538;13.266;2022-07-23T15:43:29;28.10;83.90
17687;DHT22;8962;52.538;13.266;2022-07-23T15:45:56;29.40;79.80
17687;DHT22;8962;52.538;13.266;2022-07-23T15:48:24;31.50;73.70
17687;DHT22;8962;52.538;13.266;2022-07-23T15:50:51;33.00;67.70